Ayvacik, Turkey
Current Conditions -  °F | °C
As of 1:50 PM on Monday 20 Oct 2014 (Local Time) from LTFD Reporting Station
Clear Clear  
Wind Chill: 70°   Ceiling: Unl
Heat Index: 70°   Visibility: 6mi
Dew Point: 30°   Wind: 7mph
Humidity: 23%   Direction: 110°ESE
Pressure: 30.12"   Gusts: NA
Location:  39.6°N, 26.4°E
Report Text: LTFD 201050Z 11006KT 040V120 CAVOK 21/M01 Q1020
Loading
Personal Weather Stations






























Interactive Weather Map
Tropical Storm Tracking
New forecast layout! Learn more

10-Day Weather Forecast

Advertisements
Track Severe Weather on mobile